createdAt,value
2023-08-12T00:01:34.287Z,22.89
2023-08-12T00:04:37.203Z,22.91
2023-08-12T00:07:41.873Z,22.92
2023-08-12T00:10:44.769Z,22.92
2023-08-12T00:13:47.612Z,22.92
2023-08-12T00:16:51.786Z,22.90
2023-08-12T00:19:54.688Z,22.89
2023-08-12T00:22:57.506Z,22.91
2023-08-12T00:26:00.307Z,22.90
2023-08-12T00:29:03.837Z,22.90
2023-08-12T00:32:08.252Z,22.90
2023-08-12T00:35:11.243Z,22.91
2023-08-12T00:38:14.157Z,22.90
2023-08-12T00:41:17.008Z,22.89
2023-08-12T00:44:20.052Z,22.89
2023-08-12T00:47:24.331Z,22.86
2023-08-12T00:50:27.584Z,22.86
2023-08-12T00:53:30.567Z,22.86
2023-08-12T00:56:33.583Z,22.86
2023-08-12T00:59:37.248Z,22.87
2023-08-12T01:02:41.760Z,22.85
2023-08-12T01:05:44.807Z,22.84
2023-08-12T01:08:47.620Z,22.82
2023-08-12T01:11:52.710Z,22.86
2023-08-12T01:14:58.543Z,22.81
2023-08-12T01:18:02.990Z,22.83
2023-08-12T01:21:09.130Z,22.83
2023-08-12T01:24:13.422Z,22.86
2023-08-12T01:27:16.433Z,22.85
2023-08-12T01:30:20.796Z,22.84
2023-08-12T01:33:28.429Z,22.82
2023-08-12T01:36:31.848Z,22.84
2023-08-12T01:39:37.695Z,22.81
2023-08-12T01:42:41.456Z,22.82
2023-08-12T01:45:45.148Z,22.82
2023-08-12T01:48:48.008Z,22.82
2023-08-12T01:51:50.803Z,22.81
2023-08-12T01:54:55.070Z,22.79
2023-08-12T01:57:58.059Z,22.81
2023-08-12T02:01:00.882Z,22.82
2023-08-12T02:04:03.739Z,22.79
2023-08-12T02:07:06.794Z,22.79
2023-08-12T02:10:11.596Z,22.78
2023-08-12T02:13:14.389Z,22.78
2023-08-12T02:16:17.285Z,22.78
2023-08-12T02:19:20.132Z,22.78
2023-08-12T02:22:24.146Z,22.78
2023-08-12T02:25:28.393Z,22.78
2023-08-12T02:28:31.200Z,22.74
2023-08-12T02:31:34.148Z,22.78
2023-08-12T02:34:36.958Z,22.79
2023-08-12T02:37:39.788Z,22.81
2023-08-12T02:40:44.010Z,22.75
2023-08-12T02:43:46.868Z,22.76
2023-08-12T02:46:49.669Z,22.81
2023-08-12T02:49:52.406Z,22.75
2023-08-12T02:52:55.233Z,22.75
2023-08-12T02:55:59.392Z,22.75
2023-08-12T02:59:02.249Z,22.73
2023-08-12T03:02:05.229Z,22.74
2023-08-12T03:05:08.514Z,22.74
2023-08-12T03:08:11.328Z,22.73
2023-08-12T03:11:16.794Z,22.71
2023-08-12T03:14:19.636Z,22.74
2023-08-12T03:17:22.463Z,22.74
2023-08-12T03:20:25.360Z,22.76
2023-08-12T03:23:28.316Z,22.76
2023-08-12T03:26:32.477Z,22.77
2023-08-12T03:29:35.522Z,22.75
2023-08-12T03:32:38.368Z,22.74
2023-08-12T03:35:41.227Z,22.72
2023-08-12T03:38:44.155Z,22.73
2023-08-12T03:41:48.432Z,22.72
2023-08-12T03:44:51.224Z,22.73
2023-08-12T03:47:54.168Z,22.75
2023-08-12T03:50:56.989Z,22.74
2023-08-12T03:54:00.195Z,22.74
2023-08-12T03:57:04.358Z,22.74
2023-08-12T04:00:09.255Z,22.74
2023-08-12T04:03:12.582Z,22.74
2023-08-12T04:06:15.432Z,22.75
2023-08-12T04:09:18.469Z,22.73
2023-08-12T04:12:22.701Z,22.73
2023-08-12T04:15:25.527Z,22.75
2023-08-12T04:18:28.289Z,22.74
2023-08-12T04:21:31.118Z,22.76
2023-08-12T04:24:33.894Z,22.73
2023-08-12T04:27:38.048Z,22.75
2023-08-12T04:30:42.821Z,22.74
2023-08-12T04:33:45.749Z,22.73
2023-08-12T04:36:48.627Z,22.70
2023-08-12T04:39:51.438Z,22.71
2023-08-12T04:42:56.144Z,22.72
2023-08-12T04:45:59.051Z,22.72
2023-08-12T04:49:01.990Z,22.70
2023-08-12T04:52:04.889Z,22.70
2023-08-12T04:55:07.922Z,22.71
2023-08-12T04:58:12.061Z,22.69
2023-08-12T05:01:14.917Z,22.70
2023-08-12T05:04:17.772Z,22.68
2023-08-12T05:07:20.660Z,22.69
2023-08-12T05:10:23.579Z,22.72
2023-08-12T05:13:29.348Z,22.72
2023-08-12T05:16:32.157Z,22.71
2023-08-12T05:19:35.211Z,22.71
2023-08-12T05:22:38.004Z,22.69
2023-08-12T05:25:41.104Z,22.67
2023-08-12T05:28:45.304Z,22.67
2023-08-12T05:31:48.203Z,22.70
2023-08-12T05:34:52.112Z,22.68
2023-08-12T05:37:54.920Z,22.67
2023-08-12T05:40:57.684Z,22.65
2023-08-12T05:44:01.895Z,22.64
2023-08-12T05:47:04.715Z,22.67
2023-08-12T05:50:08.568Z,22.65
2023-08-12T05:53:11.494Z,22.61
2023-08-12T05:56:14.299Z,22.62
2023-08-12T05:59:18.546Z,22.61
2023-08-12T06:02:21.417Z,22.63
2023-08-12T06:05:24.295Z,22.65
2023-08-12T06:08:27.168Z,22.65
2023-08-12T06:11:30.310Z,22.67
2023-08-12T06:14:34.560Z,22.67
2023-08-12T06:17:37.450Z,22.66
2023-08-12T06:20:40.306Z,22.68
2023-08-12T06:23:43.138Z,22.67
2023-08-12T06:26:46.000Z,22.66
2023-08-12T06:29:50.151Z,22.68
2023-08-12T06:32:53.054Z,22.69
2023-08-12T06:35:55.897Z,22.69
2023-08-12T06:38:58.808Z,22.69
2023-08-12T06:42:01.577Z,22.70
2023-08-12T06:45:06.294Z,22.69
2023-08-12T06:48:09.220Z,22.70
2023-08-12T06:51:12.465Z,22.70
2023-08-12T06:54:15.272Z,22.70
2023-08-12T06:57:18.151Z,22.73
2023-08-12T07:00:22.617Z,22.73
2023-08-12T07:03:25.460Z,22.73
2023-08-12T07:06:28.304Z,22.71
2023-08-12T07:09:31.124Z,22.70
2023-08-12T07:12:33.957Z,22.71
2023-08-12T07:15:38.214Z,22.70
2023-08-12T07:18:41.042Z,22.71
2023-08-12T07:21:43.869Z,22.69
2023-08-12T07:24:46.695Z,22.67
2023-08-12T07:27:49.496Z,22.69
2023-08-12T07:30:53.772Z,22.69
2023-08-12T07:33:56.570Z,22.70
2023-08-12T07:36:59.406Z,22.68
2023-08-12T07:40:02.273Z,22.69
2023-08-12T07:43:05.310Z,22.71
2023-08-12T07:46:10.465Z,22.70
2023-08-12T07:49:13.520Z,22.69
2023-08-12T07:52:16.390Z,22.70
2023-08-12T07:55:19.346Z,22.74
2023-08-12T07:58:22.144Z,22.73
2023-08-12T08:01:26.346Z,22.72
2023-08-12T08:04:29.226Z,22.71
2023-08-12T08:07:33.086Z,22.70
2023-08-12T08:10:36.094Z,22.66
2023-08-12T08:13:39.305Z,22.62
2023-08-12T08:16:43.683Z,22.64
2023-08-12T08:19:46.593Z,22.59
2023-08-12T08:22:49.490Z,22.59
2023-08-12T08:25:52.405Z,22.61
2023-08-12T08:28:55.254Z,22.64
2023-08-12T08:31:59.408Z,22.65
2023-08-12T08:35:02.298Z,22.61
2023-08-12T08:38:05.287Z,22.63
2023-08-12T08:41:08.450Z,22.64
2023-08-12T08:44:11.454Z,22.62
2023-08-12T08:47:17.343Z,22.58
2023-08-12T08:50:20.466Z,22.58
2023-08-12T08:53:23.742Z,22.60
2023-08-12T08:56:27.047Z,22.59
2023-08-12T08:59:32.021Z,22.58
2023-08-12T09:02:37.290Z,22.58
2023-08-12T09:05:41.029Z,22.58
2023-08-12T09:08:45.617Z,22.59
2023-08-12T09:11:49.424Z,22.56
2023-08-12T09:14:52.212Z,22.57
2023-08-12T09:17:56.415Z,22.52
2023-08-12T09:20:59.378Z,22.52
2023-08-12T09:24:04.617Z,22.54
2023-08-12T09:27:07.481Z,22.53
2023-08-12T09:30:10.636Z,22.50
2023-08-12T09:33:14.830Z,22.53
2023-08-12T09:36:17.815Z,22.52
2023-08-12T09:39:21.259Z,22.50
2023-08-12T09:42:24.068Z,22.55
2023-08-12T09:45:28.116Z,22.54
2023-08-12T09:48:32.327Z,22.54
2023-08-12T09:51:37.003Z,22.54
2023-08-12T09:54:40.647Z,22.57
2023-08-12T09:57:44.539Z,22.61
2023-08-12T10:00:47.802Z,22.60
2023-08-12T10:03:52.878Z,22.57
2023-08-12T10:06:56.602Z,22.60
2023-08-12T10:09:59.661Z,22.62
2023-08-12T10:13:03.120Z,22.65
2023-08-12T10:16:06.208Z,22.66
2023-08-12T10:19:16.360Z,22.66
2023-08-12T10:22:19.400Z,22.66
2023-08-12T10:25:23.774Z,22.67
2023-08-12T10:28:26.704Z,22.71
2023-08-12T10:31:30.348Z,22.72
2023-08-12T10:34:34.660Z,22.73
2023-08-12T10:37:37.553Z,22.74
2023-08-12T10:40:40.416Z,22.78
2023-08-12T10:43:50.826Z,22.80
2023-08-12T10:46:54.276Z,22.80
2023-08-12T10:49:59.185Z,22.80
2023-08-12T10:53:22.083Z,22.82
2023-08-12T10:56:25.374Z,22.88
2023-08-12T10:59:46.298Z,22.91
2023-08-12T11:02:51.487Z,22.98
2023-08-12T11:05:57.541Z,22.97
2023-08-12T11:09:00.669Z,22.96
2023-08-12T11:12:04.932Z,22.96
2023-08-12T11:15:08.828Z,23.00
2023-08-12T11:18:12.759Z,22.97
2023-08-12T11:21:17.096Z,22.99
2023-08-12T11:24:19.892Z,22.98
2023-08-12T11:27:23.985Z,23.00
2023-08-12T11:30:28.435Z,23.01
2023-08-12T11:33:34.675Z,23.01
2023-08-12T11:36:38.997Z,23.00
2023-08-12T11:39:41.896Z,23.05
2023-08-12T11:42:45.642Z,23.00
2023-08-12T11:45:48.530Z,23.04
2023-08-12T11:48:52.155Z,23.04
2023-08-12T11:51:56.732Z,23.03
2023-08-12T11:54:59.758Z,23.03
2023-08-12T11:58:03.166Z,23.05
2023-08-12T12:01:07.721Z,23.10
2023-08-12T12:04:12.671Z,23.12
2023-08-12T12:07:23.735Z,23.14
2023-08-12T12:10:32.750Z,23.13
2023-08-12T12:13:36.886Z,23.17
2023-08-12T12:16:41.496Z,23.18
2023-08-12T12:19:44.370Z,23.17
2023-08-12T12:22:49.358Z,23.19
2023-08-12T12:25:58.701Z,23.18
2023-08-12T12:29:01.470Z,23.17
2023-08-12T12:32:04.414Z,23.21
2023-08-12T12:35:08.753Z,23.18
2023-08-12T12:38:12.898Z,23.20
2023-08-12T12:41:15.745Z,23.21
2023-08-12T12:44:18.568Z,23.23
2023-08-12T12:47:21.542Z,23.25
2023-08-12T12:50:24.522Z,23.25
2023-08-12T12:53:28.720Z,23.27
2023-08-12T12:56:31.679Z,23.29
2023-08-12T12:59:34.685Z,23.32
2023-08-12T13:02:37.578Z,23.32
2023-08-12T13:05:40.649Z,23.32
2023-08-12T13:08:44.853Z,23.32
2023-08-12T13:11:47.720Z,23.32
2023-08-12T13:14:50.516Z,23.36
2023-08-12T13:17:53.409Z,23.35
2023-08-12T13:20:56.417Z,23.35
2023-08-12T13:24:00.667Z,23.37
2023-08-12T13:27:03.534Z,23.36
2023-08-12T13:30:07.770Z,23.41
2023-08-12T13:33:10.626Z,23.40
2023-08-12T13:36:14.105Z,23.42
2023-08-12T13:39:19.083Z,23.44
2023-08-12T13:42:21.958Z,23.46
2023-08-12T13:45:25.743Z,23.49
2023-08-12T13:48:28.917Z,23.49
2023-08-12T13:51:33.099Z,23.49
2023-08-12T13:54:37.452Z,23.52
2023-08-12T13:57:40.306Z,23.47
2023-08-12T14:00:43.198Z,23.49
2023-08-12T14:03:46.082Z,23.48
2023-08-12T14:06:49.701Z,23.48
2023-08-12T14:09:55.590Z,23.50
2023-08-12T14:12:58.421Z,23.53
2023-08-12T14:16:01.265Z,23.50
2023-08-12T14:19:04.118Z,23.56
2023-08-12T14:22:07.008Z,23.61
2023-08-12T14:25:12.280Z,23.56
2023-08-12T14:28:15.321Z,23.60
2023-08-12T14:31:18.137Z,23.60
2023-08-12T14:34:21.050Z,23.59
2023-08-12T14:37:23.988Z,23.62
2023-08-12T14:40:28.135Z,23.67
2023-08-12T14:43:31.027Z,23.64
2023-08-12T14:46:33.897Z,23.65
2023-08-12T14:49:36.783Z,23.65
2023-08-12T14:52:39.732Z,23.65
2023-08-12T14:55:44.031Z,23.64
2023-08-12T14:58:46.910Z,23.65
2023-08-12T15:01:49.763Z,23.65
2023-08-12T15:04:53.513Z,23.63
2023-08-12T15:07:56.378Z,23.64
2023-08-12T15:11:00.679Z,23.67
2023-08-12T15:14:03.478Z,23.66
2023-08-12T15:17:06.275Z,23.61
2023-08-12T15:20:11.647Z,23.70
2023-08-12T15:23:14.498Z,23.67
2023-08-12T15:26:18.786Z,23.65
2023-08-12T15:29:21.578Z,23.63
2023-08-12T15:32:24.410Z,23.64
2023-08-12T15:35:27.271Z,23.60
2023-08-12T15:38:30.031Z,23.63
2023-08-12T15:41:34.249Z,23.61
2023-08-12T15:44:39.044Z,23.60
2023-08-12T15:47:43.786Z,23.59
2023-08-12T15:50:46.900Z,23.58
2023-08-12T15:53:49.721Z,23.55
2023-08-12T15:56:54.506Z,23.56
2023-08-12T15:59:57.376Z,23.55
2023-08-12T16:03:00.323Z,23.53
2023-08-12T16:06:04.034Z,23.53
2023-08-12T16:09:18.136Z,23.51
2023-08-12T16:12:23.400Z,23.51
2023-08-12T16:15:26.315Z,23.46
2023-08-12T16:18:29.165Z,23.49
2023-08-12T16:21:32.726Z,23.49
2023-08-12T16:24:35.633Z,23.43
2023-08-12T16:27:39.844Z,23.41
2023-08-12T16:30:42.648Z,23.40
2023-08-12T16:33:45.434Z,23.41
2023-08-12T16:36:53.421Z,23.37
2023-08-12T16:40:01.645Z,23.36
2023-08-12T16:43:06.106Z,23.34
2023-08-12T16:46:09.041Z,23.33
2023-08-12T16:49:11.968Z,23.33
2023-08-12T16:52:15.037Z,23.36
2023-08-12T16:55:18.255Z,23.31
2023-08-12T16:58:22.451Z,23.30
2023-08-12T17:01:25.400Z,23.33
2023-08-12T17:04:28.245Z,23.25
2023-08-12T17:07:31.021Z,23.29
2023-08-12T17:10:34.329Z,23.23
2023-08-12T17:13:38.772Z,23.24
2023-08-12T17:16:41.618Z,23.25
2023-08-12T17:19:44.670Z,23.25
2023-08-12T17:22:47.536Z,23.27
2023-08-12T17:25:53.452Z,23.20
2023-08-12T17:28:57.580Z,23.23
2023-08-12T17:32:00.612Z,23.24
2023-08-12T17:35:04.585Z,23.23
2023-08-12T17:38:07.583Z,23.25
2023-08-12T17:41:11.270Z,23.23
2023-08-12T17:44:16.006Z,23.21
2023-08-12T17:47:18.824Z,23.20
2023-08-12T17:50:21.624Z,23.21
2023-08-12T17:53:24.503Z,23.17
2023-08-12T17:56:27.515Z,23.16
2023-08-12T17:59:31.633Z,23.16
2023-08-12T18:02:34.537Z,23.12
2023-08-12T18:05:37.394Z,23.09
2023-08-12T18:08:40.258Z,23.08
2023-08-12T18:11:43.082Z,23.08
2023-08-12T18:14:47.257Z,23.06
2023-08-12T18:17:51.988Z,23.03
2023-08-12T18:20:54.905Z,22.77
2023-08-12T18:23:57.715Z,22.33
2023-08-12T18:27:00.738Z,22.24
2023-08-12T18:30:05.506Z,22.10
2023-08-12T18:33:08.507Z,22.09
2023-08-12T18:36:11.666Z,21.96
2023-08-12T18:39:14.520Z,22.02
2023-08-12T18:42:17.303Z,22.00
2023-08-12T18:45:21.595Z,21.95
2023-08-12T18:48:24.425Z,21.96
2023-08-12T18:51:27.192Z,22.01
2023-08-12T18:54:30.063Z,21.99
2023-08-12T18:57:32.879Z,21.77
2023-08-12T19:00:37.085Z,21.77
2023-08-12T19:03:39.950Z,21.71
2023-08-12T19:06:42.882Z,21.66
2023-08-12T19:09:45.805Z,21.72
2023-08-12T19:12:48.688Z,21.76
2023-08-12T19:15:53.466Z,21.65
2023-08-12T19:18:56.264Z,21.64
2023-08-12T19:21:59.135Z,21.74
2023-08-12T19:25:01.954Z,21.58
2023-08-12T19:28:05.014Z,21.47
2023-08-12T19:31:09.278Z,21.48
2023-08-12T19:34:12.291Z,21.49
2023-08-12T19:37:15.467Z,21.52
2023-08-12T19:40:19.210Z,21.47
2023-08-12T19:43:22.051Z,21.41
2023-08-12T19:46:26.831Z,21.36
2023-08-12T19:49:30.043Z,21.23
2023-08-12T19:52:32.873Z,21.19
2023-08-12T19:55:35.667Z,21.25
2023-08-12T19:58:38.544Z,21.13
2023-08-12T20:01:42.711Z,21.20
2023-08-12T20:04:46.508Z,21.07
2023-08-12T20:07:49.972Z,21.17
2023-08-12T20:10:53.763Z,20.97
2023-08-12T20:13:56.576Z,20.99
2023-08-12T20:17:00.802Z,20.78
2023-08-12T20:20:04.258Z,20.80
2023-08-12T20:23:07.094Z,20.98
2023-08-12T20:26:10.847Z,20.94
2023-08-12T20:29:13.638Z,20.87
2023-08-12T20:32:17.892Z,20.67
2023-08-12T20:35:20.751Z,20.76
2023-08-12T20:38:24.102Z,20.78
2023-08-12T20:41:26.871Z,20.80
2023-08-12T20:44:29.748Z,20.57
2023-08-12T20:47:34.030Z,20.51
2023-08-12T20:50:36.890Z,20.64
2023-08-12T20:53:39.785Z,20.51
2023-08-12T20:56:42.760Z,20.48
2023-08-12T20:59:47.448Z,20.48
2023-08-12T21:02:51.794Z,20.33
2023-08-12T21:05:54.704Z,20.48
2023-08-12T21:08:57.532Z,20.41
2023-08-12T21:12:00.520Z,20.40
2023-08-12T21:15:03.431Z,20.42
2023-08-12T21:18:08.437Z,20.35
2023-08-12T21:21:12.563Z,20.31
2023-08-12T21:24:15.471Z,20.39
2023-08-12T21:27:18.336Z,20.29
2023-08-12T21:30:21.349Z,20.32
2023-08-12T21:33:25.933Z,20.30
2023-08-12T21:36:28.728Z,20.37
2023-08-12T21:39:31.517Z,20.35
2023-08-12T21:42:34.280Z,20.39
2023-08-12T21:45:37.379Z,20.30
2023-08-12T21:48:41.654Z,20.25
2023-08-12T21:51:45.202Z,20.24
2023-08-12T21:54:48.007Z,20.27
2023-08-12T21:57:50.928Z,20.27
2023-08-12T22:00:53.768Z,20.43
2023-08-12T22:03:57.963Z,20.39
2023-08-12T22:07:00.806Z,20.34
2023-08-12T22:10:04.241Z,20.33
2023-08-12T22:13:07.086Z,20.27
2023-08-12T22:16:09.899Z,20.21
2023-08-12T22:19:14.113Z,20.48
2023-08-12T22:22:20.181Z,20.45
2023-08-12T22:25:24.071Z,20.37
2023-08-12T22:28:27.226Z,20.31
2023-08-12T22:31:30.063Z,20.35
2023-08-12T22:34:34.823Z,20.25
2023-08-12T22:37:37.709Z,20.28
2023-08-12T22:40:40.579Z,20.29
2023-08-12T22:43:43.452Z,20.27
2023-08-12T22:46:46.359Z,20.25
2023-08-12T22:49:50.952Z,20.32
2023-08-12T22:52:53.756Z,20.33
2023-08-12T22:55:56.539Z,20.30
2023-08-12T22:59:01.134Z,20.32
2023-08-12T23:02:04.008Z,20.34
2023-08-12T23:05:08.767Z,20.11
2023-08-12T23:08:11.615Z,20.09
2023-08-12T23:11:14.476Z,20.17
2023-08-12T23:14:17.318Z,20.08
2023-08-12T23:17:20.233Z,20.08
2023-08-12T23:20:24.431Z,20.02
2023-08-12T23:23:27.232Z,20.34
2023-08-12T23:26:30.071Z,20.51
2023-08-12T23:29:32.821Z,20.14
2023-08-12T23:32:35.716Z,20.15
2023-08-12T23:35:41.200Z,20.43
2023-08-12T23:38:44.050Z,20.48
2023-08-12T23:41:46.948Z,20.34
2023-08-12T23:44:49.743Z,20.24
2023-08-12T23:47:52.633Z,20.09
2023-08-12T23:50:56.935Z,19.91
2023-08-12T23:53:59.721Z,20.09
2023-08-12T23:57:02.544Z,20.09
